Time,TemperatureF,DewpointF,PressureIn,WindDirection,WindDirectionDegrees,WindSpeedMPH,WindSpeedGustMPH,Humidity,HourlyPrecipIn,Conditions,Clouds,dailyrainin,SolarRadiationWatts/m^2,SoftwareType,DateUTC
2013-02-23 00:02:00,47.5,45.0,30.25,SW,225,0.0,5.0,89,0.00,,,0.00,0,weatherlink.com 1.10,2013-02-23 08:02:00,
2013-02-23 00:17:00,47.3,45.0,30.25,West,275,1.0,5.0,90,0.00,,,0.00,0,weatherlink.com 1.10,2013-02-23 08:17:00,
2013-02-23 00:32:00,47.4,44.0,30.24,West,271,1.0,2.0,88,0.00,,,0.00,0,weatherlink.com 1.10,2013-02-23 08:32:00,
2013-02-23 00:47:00,47.0,44.0,30.25,West,271,1.0,2.0,88,0.00,,,0.00,0,weatherlink.com 1.10,2013-02-23 08:47:00,
2013-02-23 01:02:00,46.5,44.0,30.25,WSW,238,2.0,4.0,89,0.00,,,0.00,0,weatherlink.com 1.10,2013-02-23 09:02:00,
2013-02-23 01:17:00,46.5,44.0,30.25,WSW,238,2.0,3.0,90,0.00,,,0.00,0,weatherlink.com 1.10,2013-02-23 09:17:00,
2013-02-23 01:32:00,47.4,44.0,30.24,South,187,5.0,6.0,89,0.00,,,0.00,0,weatherlink.com 1.10,2013-02-23 09:32:00,
2013-02-23 01:47:00,47.8,45.0,30.23,South,187,4.0,7.0,88,0.00,,,0.00,0,weatherlink.com 1.10,2013-02-23 09:47:00,
2013-02-23 02:02:00,47.9,44.0,30.22,SSW,213,2.0,5.0,87,0.00,,,0.00,0,weatherlink.com 1.10,2013-02-23 10:02:00,
2013-02-23 02:17:00,47.8,45.0,30.24,WSW,248,1.0,3.0,88,0.00,,,0.00,0,weatherlink.com 1.10,2013-02-23 10:17:00,
2013-02-23 02:32:00,46.9,43.0,30.23,West,259,1.0,9.0,87,0.00,,,0.00,0,weatherlink.com 1.10,2013-02-23 10:32:00,
2013-02-23 02:47:00,46.1,43.0,30.23,NNW,328,2.0,5.0,89,0.00,,,0.00,0,weatherlink.com 1.10,2013-02-23 10:47:00,
2013-02-23 03:02:00,46.5,44.0,30.23,West,266,6.0,10.0,90,0.00,,,0.00,0,weatherlink.com 1.10,2013-02-23 11:02:00,
2013-02-23 03:17:00,46.9,44.0,30.21,SW,233,5.0,9.0,90,0.00,,,0.00,0,weatherlink.com 1.10,2013-02-23 11:17:00,
2013-02-23 03:32:00,47.1,44.0,30.22,West,264,2.0,5.0,89,0.00,,,0.00,0,weatherlink.com 1.10,2013-02-23 11:32:00,
2013-02-23 03:47:00,47.3,44.0,30.22,West,276,2.0,6.0,89,0.00,,,0.00,0,weatherlink.com 1.10,2013-02-23 11:47:00,
2013-02-23 04:02:00,47.3,45.0,30.22,West,263,3.0,6.0,90,0.00,,,0.00,0,weatherlink.com 1.10,2013-02-23 12:02:00,
2013-02-23 04:17:00,47.4,45.0,30.22,West,281,0.0,6.0,91,0.00,,,0.00,0,weatherlink.com 1.10,2013-02-23 12:17:00,
2013-02-23 04:32:00,47.6,46.0,30.21,WNW,284,2.0,3.0,93,0.01,,,0.01,0,weatherlink.com 1.10,2013-02-23 12:32:00,
2013-02-23 04:47:00,47.8,46.0,30.20,WSW,246,2.0,5.0,93,0.01,,,0.01,0,weatherlink.com 1.10,2013-02-23 12:47:00,
2013-02-23 05:02:00,48.1,46.0,30.20,West,271,1.0,5.0,93,0.01,,,0.01,0,weatherlink.com 1.10,2013-02-23 13:02:00,
2013-02-23 05:17:00,47.7,46.0,30.20,WNW,284,5.0,6.0,93,0.01,,,0.01,0,weatherlink.com 1.10,2013-02-23 13:17:00,
2013-02-23 05:32:00,47.4,46.0,30.20,NW,304,7.0,10.0,93,0.00,,,0.01,0,weatherlink.com 1.10,2013-02-23 13:32:00,
2013-02-23 05:47:00,47.2,45.0,30.20,WNW,288,1.0,9.0,92,0.00,,,0.01,0,weatherlink.com 1.10,2013-02-23 13:47:00,
2013-02-23 06:02:00,47.0,45.0,30.21,WNW,293,2.0,6.0,92,0.00,,,0.01,0,weatherlink.com 1.10,2013-02-23 14:02:00,
2013-02-23 06:17:00,46.4,44.0,30.22,NNW,337,2.0,7.0,90,0.00,,,0.01,0,weatherlink.com 1.10,2013-02-23 14:17:00,
2013-02-23 06:32:00,45.6,43.0,30.22,NNW,337,1.0,4.0,90,0.00,,,0.01,0,weatherlink.com 1.10,2013-02-23 14:32:00,
2013-02-23 06:47:00,45.7,43.0,30.23,WNW,288,2.0,6.0,90,0.00,,,0.01,5,weatherlink.com 1.10,2013-02-23 14:47:00,
2013-02-23 07:03:00,45.4,42.0,30.24,NW,308,1.0,5.0,88,0.00,,,0.01,12,weatherlink.com 1.10,2013-02-23 15:03:00,
2013-02-23 07:18:00,45.3,42.0,30.24,NW,315,6.0,7.0,88,0.00,,,0.01,63,weatherlink.com 1.10,2013-02-23 15:18:00,
2013-02-23 07:33:00,45.9,42.0,30.25,NNW,331,2.0,9.0,85,0.00,,,0.01,118,weatherlink.com 1.10,2013-02-23 15:33:00,
2013-02-23 07:48:00,46.5,42.0,30.26,NNW,346,1.0,4.0,85,0.00,,,0.01,181,weatherlink.com 1.10,2013-02-23 15:48:00,
2013-02-23 08:03:00,46.9,42.0,30.26,NNW,338,1.0,4.0,83,0.00,,,0.01,232,weatherlink.com 1.10,2013-02-23 16:03:00,
2013-02-23 08:18:00,47.4,42.0,30.27,North,11,6.0,7.0,82,0.00,,,0.01,297,weatherlink.com 1.10,2013-02-23 16:18:00,
2013-02-23 08:33:00,47.8,42.0,30.28,NNW,343,2.0,8.0,80,0.00,,,0.01,355,weatherlink.com 1.10,2013-02-23 16:33:00,
2013-02-23 08:48:00,49.0,42.0,30.28,NNE,28,3.0,5.0,78,0.00,,,0.01,410,weatherlink.com 1.10,2013-02-23 16:48:00,
2013-02-23 09:03:00,49.3,41.0,30.28,NW,323,3.0,8.0,74,0.00,,,0.01,452,weatherlink.com 1.10,2013-02-23 17:03:00,
2013-02-23 09:18:00,50.0,40.0,30.28,NNW,341,6.0,11.0,69,0.00,,,0.01,504,weatherlink.com 1.10,2013-02-23 17:18:00,
2013-02-23 09:33:00,50.9,40.0,30.28,NNE,28,6.0,10.0,67,0.00,,,0.01,538,weatherlink.com 1.10,2013-02-23 17:33:00,
2013-02-23 09:48:00,51.1,40.0,30.27,North,355,2.0,9.0,65,0.00,,,0.01,575,weatherlink.com 1.10,2013-02-23 17:48:00,
2013-02-23 10:03:00,51.7,39.0,30.27,North,355,5.0,10.0,63,0.00,,,0.01,610,weatherlink.com 1.10,2013-02-23 18:03:00,
2013-02-23 10:18:00,52.5,38.0,30.26,NNW,331,4.0,10.0,58,0.00,,,0.01,640,weatherlink.com 1.10,2013-02-23 18:18:00,
2013-02-23 10:33:00,53.5,36.0,30.26,North,5,10.0,11.0,52,0.00,,,0.01,673,weatherlink.com 1.10,2013-02-23 18:33:00,
2013-02-23 10:49:00,54.4,36.0,30.26,North,351,4.0,15.0,51,0.00,,,0.01,686,weatherlink.com 1.10,2013-02-23 18:49:00,
2013-02-23 11:04:00,54.7,35.0,30.25,North,355,7.0,16.0,47,0.00,,,0.01,719,weatherlink.com 1.10,2013-02-23 19:04:00,
2013-02-23 11:19:00,54.9,35.0,30.25,NNW,348,6.0,12.0,48,0.00,,,0.01,735,weatherlink.com 1.10,2013-02-23 19:19:00,
2013-02-23 11:34:00,55.5,35.0,30.25,NNE,25,9.0,12.0,47,0.00,,,0.01,758,weatherlink.com 1.10,2013-02-23 19:34:00,
2013-02-23 11:49:00,55.5,35.0,30.25,North,351,7.0,14.0,46,0.00,,,0.01,738,weatherlink.com 1.10,2013-02-23 19:49:00,
2013-02-23 12:04:00,56.0,35.0,30.24,NNW,335,10.0,13.0,45,0.00,,,0.01,700,weatherlink.com 1.10,2013-02-23 20:04:00,
2013-02-23 12:19:00,57.1,35.0,30.24,North,355,7.0,11.0,44,0.00,,,0.01,710,weatherlink.com 1.10,2013-02-23 20:19:00,
2013-02-23 12:34:00,56.7,34.0,30.23,NNW,335,6.0,14.0,42,0.00,,,0.01,708,weatherlink.com 1.10,2013-02-23 20:34:00,
2013-02-23 12:49:00,57.2,35.0,30.23,NNW,342,5.0,11.0,43,0.00,,,0.01,687,weatherlink.com 1.10,2013-02-23 20:49:00,
2013-02-23 13:04:00,57.1,33.0,30.23,North,5,8.0,15.0,41,0.00,,,0.01,691,weatherlink.com 1.10,2013-02-23 21:04:00,
2013-02-23 13:19:00,57.9,34.0,30.21,NNW,329,9.0,14.0,40,0.00,,,0.01,682,weatherlink.com 1.10,2013-02-23 21:19:00,
2013-02-23 13:34:00,57.5,33.0,30.20,NNE,14,4.0,16.0,39,0.00,,,0.01,647,weatherlink.com 1.10,2013-02-23 21:34:00,
2013-02-23 13:49:00,58.4,34.0,30.20,WNW,302,7.0,13.0,40,0.00,,,0.01,570,weatherlink.com 1.10,2013-02-23 21:49:00,
2013-02-23 14:04:00,58.6,34.0,30.19,NW,322,7.0,13.0,39,0.00,,,0.01,592,weatherlink.com 1.10,2013-02-23 22:04:00,
2013-02-23 14:19:00,58.3,31.0,30.19,NNW,333,11.0,14.0,36,0.00,,,0.01,566,weatherlink.com 1.10,2013-02-23 22:19:00,
2013-02-23 14:34:00,58.8,32.0,30.19,NNW,334,5.0,13.0,37,0.00,,,0.01,538,weatherlink.com 1.10,2013-02-23 22:34:00,
2013-02-23 14:49:00,58.8,32.0,30.19,North,11,5.0,12.0,36,0.00,,,0.01,487,weatherlink.com 1.10,2013-02-23 22:49:00,
2013-02-23 15:04:00,58.8,32.0,30.18,WNW,292,5.0,11.0,36,0.00,,,0.01,445,weatherlink.com 1.10,2013-02-23 23:04:00,
2013-02-23 15:19:00,58.9,32.0,30.18,North,355,4.0,11.0,36,0.00,,,0.01,406,weatherlink.com 1.10,2013-02-23 23:19:00,
2013-02-23 15:34:00,58.7,31.0,30.18,NW,325,4.0,12.0,35,0.00,,,0.01,355,weatherlink.com 1.10,2013-02-23 23:34:00,
2013-02-23 15:49:00,58.7,31.0,30.18,NNW,348,6.0,16.0,35,0.00,,,0.01,313,weatherlink.com 1.10,2013-02-23 23:49:00,
2013-02-23 16:04:00,58.4,31.0,30.18,NW,312,4.0,11.0,36,0.00,,,0.01,250,weatherlink.com 1.10,2013-02-24 00:04:00,
2013-02-23 16:19:00,57.8,32.0,30.18,NW,315,3.0,10.0,38,0.00,,,0.01,185,weatherlink.com 1.10,2013-02-24 00:19:00,
2013-02-23 16:34:00,57.2,33.0,30.18,NW,321,5.0,12.0,41,0.00,,,0.01,130,weatherlink.com 1.10,2013-02-24 00:34:00,
2013-02-23 16:49:00,56.7,33.0,30.18,WNW,286,5.0,9.0,41,0.00,,,0.01,77,weatherlink.com 1.10,2013-02-24 00:49:00,
2013-02-23 17:04:00,56.1,33.0,30.18,NW,319,2.0,9.0,42,0.00,,,0.01,37,weatherlink.com 1.10,2013-02-24 01:04:00,
2013-02-23 17:19:00,55.2,33.0,30.18,NNW,337,7.0,10.0,43,0.00,,,0.01,23,weatherlink.com 1.10,2013-02-24 01:19:00,
2013-02-23 17:34:00,54.1,33.0,30.19,NNW,334,4.0,9.0,45,0.00,,,0.01,12,weatherlink.com 1.10,2013-02-24 01:34:00,
2013-02-23 17:49:00,53.0,33.0,30.19,NNW,336,3.0,6.0,47,0.00,,,0.01,5,weatherlink.com 1.10,2013-02-24 01:49:00,
2013-02-23 18:04:00,52.3,34.0,30.20,North,355,2.0,7.0,50,0.00,,,0.01,0,weatherlink.com 1.10,2013-02-24 02:04:00,
2013-02-23 18:19:00,51.4,35.0,30.20,NNW,341,1.0,3.0,53,0.00,,,0.01,0,weatherlink.com 1.10,2013-02-24 02:19:00,
2013-02-23 18:34:00,50.7,35.0,30.21,NNW,341,1.0,3.0,55,0.00,,,0.01,0,weatherlink.com 1.10,2013-02-24 02:34:00,
2013-02-23 18:49:00,50.2,35.0,30.22,NNW,341,2.0,4.0,57,0.00,,,0.01,0,weatherlink.com 1.10,2013-02-24 02:49:00,
2013-02-23 19:04:00,49.3,35.0,30.22,NNW,341,0.0,2.0,59,0.00,,,0.01,0,weatherlink.com 1.10,2013-02-24 03:04:00,
2013-02-23 19:19:00,48.1,36.0,30.21,NNW,341,0.0,0.0,63,0.00,,,0.01,0,weatherlink.com 1.10,2013-02-24 03:19:00,
2013-02-23 19:34:00,47.3,36.0,30.22,NNW,341,0.0,0.0,65,0.00,,,0.01,0,weatherlink.com 1.10,2013-02-24 03:34:00,
2013-02-23 19:49:00,47.2,36.0,30.21,NNW,341,0.0,1.0,66,0.00,,,0.01,0,weatherlink.com 1.10,2013-02-24 03:49:00,
2013-02-23 20:04:00,46.3,36.0,30.22,NNW,341,0.0,0.0,67,0.00,,,0.01,0,weatherlink.com 1.10,2013-02-24 04:04:00,
2013-02-23 20:19:00,45.0,36.0,30.23,NNW,341,0.0,2.0,70,0.00,,,0.01,0,weatherlink.com 1.10,2013-02-24 04:19:00,
2013-02-23 20:34:00,45.2,36.0,30.22,NNW,341,0.0,0.0,71,0.00,,,0.01,0,weatherlink.com 1.10,2013-02-24 04:34:00,
2013-02-23 20:49:00,44.6,36.0,30.23,NNW,341,0.0,2.0,71,0.00,,,0.01,0,weatherlink.com 1.10,2013-02-24 04:49:00,
2013-02-23 21:04:00,43.8,36.0,30.23,NNW,341,1.0,2.0,74,0.00,,,0.01,0,weatherlink.com 1.10,2013-02-24 05:04:00,
2013-02-23 21:19:00,43.4,36.0,30.23,NNW,341,2.0,3.0,76,0.00,,,0.01,0,weatherlink.com 1.10,2013-02-24 05:19:00,
2013-02-23 21:49:00,42.7,36.0,30.24,NNW,341,2.0,3.0,77,0.00,,,0.01,0,weatherlink.com 1.10,2013-02-24 05:49:00,
2013-02-23 22:04:00,42.1,36.0,30.24,NNW,341,3.0,4.0,78,0.00,,,0.01,0,weatherlink.com 1.10,2013-02-24 06:04:00,
2013-02-23 22:19:00,41.6,36.0,30.24,NNW,341,3.0,5.0,80,0.00,,,0.01,0,weatherlink.com 1.10,2013-02-24 06:19:00,
2013-02-23 22:34:00,42.1,36.0,30.24,NNW,332,4.0,7.0,78,0.00,,,0.01,0,weatherlink.com 1.10,2013-02-24 06:34:00,
2013-02-23 22:49:00,42.7,36.0,30.24,NNW,346,3.0,7.0,77,0.00,,,0.01,0,weatherlink.com 1.10,2013-02-24 06:49:00,
2013-02-23 23:04:00,42.5,36.0,30.24,NNW,338,6.0,8.0,77,0.00,,,0.01,0,weatherlink.com 1.10,2013-02-24 07:04:00,
2013-02-23 23:19:00,42.2,35.0,30.24,NNW,348,2.0,8.0,77,0.00,,,0.01,0,weatherlink.com 1.10,2013-02-24 07:19:00,
2013-02-23 23:34:00,41.4,35.0,30.24,North,350,3.0,4.0,79,0.00,,,0.01,0,weatherlink.com 1.10,2013-02-24 07:34:00,
2013-02-23 23:49:00,40.6,35.0,30.24,NNW,344,2.0,4.0,80,0.00,,,0.01,0,weatherlink.com 1.10,2013-02-24 07:49:00,